^^
Saratoga-Weather Station Historical Data
Daily Summary for May 21, 2020 Units:  Metric    English   Both
Daily Weekly Monthly Yearly Custom
  High: Low: Average:
Temperature: 8.3 °C 2.4 °C 5.1 °C
Dew Point: 4.2 °C 1.2 °C 2.3 °C
Humidity: 93% 65% 82%
Wind Speed: 22.7km/h 0km/h 4.9km/h
Wind Gust: 30.6km/h - -
Wind- - WSW
Pressure: 1030.5 hPa 1021.3 hPa -
Precipitation: 0.0 mm    
Historical Graphs
 
 
Tabular Data for May 21, 2020
Time Temperature Dew Point Pressure Wind Wind Speed Wind Gust Humidity Rainfall Rate (Hourly) solar
00:00 5.5 °C 3.3 °C 1021.3 hPa WNW 14.3 km/h 14.5 km/h 86% 0.0 mm 0 W/m2
00:05 5.5 °C 3.3 °C 1021.3 hPa WSW 7.9 km/h 17.7 km/h 86% 0.0 mm 0 W/m2
00:10 5.5 °C 3.2 °C 1021.3 hPa WNW 16.3 km/h 17.7 km/h 85% 0.0 mm 0 W/m2
00:15 5.5 °C 3.2 °C 1021.3 hPa West 3.2 km/h 4.8 km/h 85% 0.0 mm 0 W/m2
00:20 5.4 °C 3.2 °C 1021.3 hPa WNW 6.4 km/h 16.1 km/h 86% 0.0 mm 0 W/m2
00:25 5.4 °C 3.2 °C 1021.7 hPa West 6.4 km/h 17.7 km/h 86% 0.0 mm 0 W/m2
00:30 5.3 °C 3.3 °C 1022.0 hPa NW 7.9 km/h 12.9 km/h 87% 0.0 mm 0 W/m2
00:35 5.3 °C 3.3 °C 1022.0 hPa WNW 13 km/h 16.1 km/h 87% 0.0 mm 0 W/m2
00:40 5.3 °C 3.1 °C 1022.0 hPa West 14.3 km/h 14.5 km/h 86% 0.0 mm 0 W/m2
00:45 5.3 °C 3.1 °C 1022.4 hPa WNW 22.7 km/h 22.5 km/h 86% 0.0 mm 0 W/m2
00:50 5.3 °C 3 °C 1022.4 hPa WNW 11.1 km/h 14.5 km/h 85% 0.0 mm 0 W/m2
00:55 5.3 °C 3 °C 1022.7 hPa WSW 11.1 km/h 17.7 km/h 85% 0.0 mm 0 W/m2
01:00 5.3 °C 3 °C 1022.7 hPa WSW 7.9 km/h 14.5 km/h 85% 0.0 mm 0 W/m2
01:05 5.2 °C 2.7 °C 1022.7 hPa West 6.4 km/h 16.1 km/h 84% 0.0 mm 0 W/m2
01:10 5.2 °C 2.7 °C 1023.0 hPa SW 6.4 km/h 17.7 km/h 84% 0.0 mm 0 W/m2
01:15 5.2 °C 2.7 °C 1023.0 hPa SW 7.9 km/h 16.1 km/h 84% 0.0 mm 0 W/m2
01:20 5.1 °C 2.6 °C 1023.4 hPa SW 6.4 km/h 17.7 km/h 84% 0.0 mm 0 W/m2
01:25 5.1 °C 2.6 °C 1023.4 hPa WNW 14.3 km/h 30.6 km/h 84% 0.0 mm 0 W/m2
01:30 5.1 °C 2.6 °C 1023.4 hPa WNW 11.1 km/h 16.1 km/h 84% 0.0 mm 0 W/m2
01:35 5.1 °C 2.6 °C 1023.7 hPa SW 14.3 km/h 30.6 km/h 84% 0.0 mm 0 W/m2
01:40 5.1 °C 2.6 °C 1023.7 hPa West 11.1 km/h 20.9 km/h 84% 0.0 mm 0 W/m2
01:45 5 °C 2.7 °C 1023.7 hPa WNW 13 km/h 17.7 km/h 85% 0.0 mm 0 W/m2
01:50 4.9 °C 2.4 °C 1023.7 hPa WSW 1.4 km/h 12.9 km/h 84% 0.0 mm 0 W/m2
01:55 4.9 °C 2.6 °C 1024.0 hPa West 13 km/h 14.5 km/h 85% 0.0 mm 0 W/m2
02:00 4.7 °C 2.4 °C 1024.0 hPa West 4.7 km/h 9.7 km/h 85% 0.0 mm 0 W/m2
02:05 4.6 °C 2.3 °C 1024.0 hPa WSW 4.7 km/h 19.3 km/h 85% 0.0 mm 0 W/m2
02:10 4.4 °C 2.3 °C 1024.0 hPa West 4.7 km/h 11.3 km/h 86% 0.0 mm 0 W/m2
02:15 4.3 °C 2.2 °C 1024.0 hPa West 6.4 km/h 19.3 km/h 86% 0.0 mm 0 W/m2
02:20 4.3 °C 2.2 °C 1024.4 hPa WSW 11.1 km/h 19.3 km/h 86% 0.0 mm 0 W/m2
02:25 4.3 °C 2.2 °C 1024.4 hPa West 16.3 km/h 17.7 km/h 86% 0.0 mm 0 W/m2
02:30 4.2 °C 2.1 °C 1024.4 hPa WSW 4.7 km/h 11.3 km/h 86% 0.0 mm 0 W/m2
02:35 4.1 °C 2.1 °C 1024.7 hPa West 11.1 km/h 16.1 km/h 87% 0.0 mm 0 W/m2
02:40 4 °C 2 °C 1024.7 hPa West 13 km/h 17.7 km/h 87% 0.0 mm 0 W/m2
02:45 4 °C 2 °C 1024.7 hPa WSW 6.4 km/h 17.7 km/h 87% 0.0 mm 0 W/m2
02:50 3.9 °C 1.9 °C 1024.7 hPa West 9.7 km/h 14.5 km/h 87% 0.0 mm 0 W/m2
02:55 3.9 °C 1.9 °C 1024.7 hPa West 6.4 km/h 24.1 km/h 87% 0.0 mm 0 W/m2
03:01 3.8 °C 1.8 °C 1024.7 hPa WNW 3.2 km/h 8 km/h 87% 0.0 mm 0 W/m2
03:06 3.8 °C 1.8 °C 1024.7 hPa West 3.2 km/h 24.1 km/h 87% 0.0 mm 0 W/m2
03:11 3.7 °C 1.9 °C 1025.1 hPa WSW 4.7 km/h 11.3 km/h 88% 0.0 mm 0 W/m2
03:16 3.7 °C 1.9 °C 1025.1 hPa SW 6.4 km/h 14.5 km/h 88% 0.0 mm 0 W/m2
03:21 3.7 °C 2.1 °C 1025.1 hPa West 13 km/h 12.9 km/h 89% 0.0 mm 0 W/m2
03:26 3.6 °C 2 °C 1025.1 hPa NW 3.2 km/h 14.5 km/h 89% 0.0 mm 0 W/m2
03:31 3.6 °C 2 °C 1025.1 hPa West 6.4 km/h 9.7 km/h 89% 0.0 mm 0 W/m2
03:36 3.6 °C 2.1 °C 1025.4 hPa West 1.4 km/h 12.9 km/h 90% 0.0 mm 0 W/m2
03:41 3.5 °C 2 °C 1025.4 hPa NW 7.9 km/h 8 km/h 90% 0.0 mm 0 W/m2
03:46 3.4 °C 1.9 °C 1025.7 hPa Calm   3.2 km/h 90% 0.0 mm 0 W/m2
03:51 3.4 °C 1.9 °C 1025.7 hPa West 3.2 km/h 4.8 km/h 90% 0.0 mm 0 W/m2
03:56 3.3 °C 1.8 °C 1025.7 hPa NW 6.4 km/h 12.9 km/h 90% 0.0 mm 0 W/m2
04:01 3.3 °C 1.8 °C 1025.7 hPa SW 3.2 km/h 4.8 km/h 90% 0.0 mm 0 W/m2
04:06 3.2 °C 1.7 °C 1025.7 hPa West 4.7 km/h 12.9 km/h 90% 0.0 mm 0 W/m2
04:11 3.2 °C 1.9 °C 1025.7 hPa SW 7.9 km/h 11.3 km/h 91% 0.0 mm 0 W/m2
04:16 3.2 °C 1.9 °C 1026.1 hPa West 3.2 km/h 6.4 km/h 91% 0.0 mm 0 W/m2
04:21 3.2 °C 1.9 °C 1025.7 hPa WSW 1.4 km/h 4.8 km/h 91% 0.0 mm 0 W/m2
04:26 3.1 °C 1.8 °C 1025.7 hPa West 3.2 km/h 4.8 km/h 91% 0.0 mm 0 W/m2
04:31 3 °C 1.7 °C 1025.7 hPa WSW 1.4 km/h 8 km/h 91% 0.0 mm 0 W/m2
04:36 2.9 °C 1.6 °C 1025.7 hPa Calm   3.2 km/h 91% 0.0 mm 0 W/m2
04:41 2.9 °C 1.6 °C 1025.7 hPa Calm   8 km/h 91% 0.0 mm 0 W/m2
04:46 2.8 °C 1.5 °C 1026.1 hPa West 3.2 km/h 11.3 km/h 91% 0.0 mm 0 W/m2
04:51 2.8 °C 1.5 °C 1026.1 hPa West 6.4 km/h 14.5 km/h 91% 0.0 mm 0 W/m2
04:56 2.9 °C 1.6 °C 1026.1 hPa WSW 4.7 km/h 14.5 km/h 91% 0.0 mm 0 W/m2
05:01 2.9 °C 1.6 °C 1026.4 hPa West 1.4 km/h 6.4 km/h 91% 0.0 mm 0 W/m2
05:06 2.8 °C 1.5 °C 1026.4 hPa West 4.7 km/h 11.3 km/h 91% 0.0 mm 0 W/m2
05:11 2.8 °C 1.5 °C 1026.4 hPa West 6.4 km/h 8 km/h 91% 0.0 mm 0 W/m2
05:16 2.8 °C 1.5 °C 1026.4 hPa West 9.7 km/h 17.7 km/h 91% 0.0 mm 0 W/m2
05:21 2.8 °C 1.5 °C 1026.8 hPa WNW 6.4 km/h 12.9 km/h 91% 0.0 mm 0 W/m2
05:26 2.8 °C 1.5 °C 1026.8 hPa West 13 km/h 16.1 km/h 91% 0.0 mm 0 W/m2
05:32 2.7 °C 1.4 °C 1026.8 hPa WNW 4.7 km/h 11.3 km/h 91% 0.0 mm 0 W/m2
05:37 2.7 °C 1.4 °C 1026.8 hPa WNW 4.7 km/h 4.8 km/h 91% 0.0 mm 0 W/m2
05:42 2.7 °C 1.4 °C 1027.1 hPa West 3.2 km/h 6.4 km/h 91% 0.0 mm 0 W/m2
05:47 2.7 °C 1.4 °C 1027.1 hPa West 4.7 km/h 6.4 km/h 91% 0.0 mm 0 W/m2
05:52 2.7 °C 1.4 °C 1027.1 hPa WSW 3.2 km/h 12.9 km/h 91% 0.0 mm 0 W/m2
05:57 2.7 °C 1.4 °C 1027.1 hPa West 4.7 km/h 8 km/h 91% 0.0 mm 0 W/m2
06:02 2.7 °C 1.4 °C 1027.1 hPa West 9.7 km/h 11.3 km/h 91% 0.0 mm 0 W/m2
06:07 2.6 °C 1.3 °C 1027.1 hPa West 11.1 km/h 14.5 km/h 91% 0.0 mm 0 W/m2
06:12 2.6 °C 1.3 °C 1027.1 hPa West 6.4 km/h 12.9 km/h 91% 0.0 mm 0 W/m2
06:17 2.6 °C 1.4 °C 1027.4 hPa West 13 km/h 14.5 km/h 92% 0.0 mm 0 W/m2
06:22 2.6 °C 1.4 °C 1027.4 hPa West 6.4 km/h 17.7 km/h 92% 0.0 mm 0 W/m2
06:27 2.6 °C 1.4 °C 1027.4 hPa West 13 km/h 19.3 km/h 92% 0.0 mm 0 W/m2
06:32 2.6 °C 1.4 °C 1027.4 hPa WSW 13 km/h 16.1 km/h 92% 0.0 mm 0 W/m2
06:37 2.6 °C 1.4 °C 1027.4 hPa WSW 7.9 km/h 16.1 km/h 92% 0.0 mm 0 W/m2
06:43 2.5 °C 1.3 °C 1027.4 hPa West 3.2 km/h 12.9 km/h 92% 0.0 mm 0 W/m2
06:48 2.5 °C 1.3 °C 1027.4 hPa North 3.2 km/h 17.7 km/h 92% 0.0 mm 0 W/m2
06:53 2.5 °C 1.3 °C 1027.4 hPa WSW 7.9 km/h 16.1 km/h 92% 0.0 mm 0 W/m2
06:58 2.5 °C 1.3 °C 1027.4 hPa WSW 7.9 km/h 12.9 km/h 92% 0.0 mm 0 W/m2
07:03 2.5 °C 1.3 °C 1027.8 hPa West 3.2 km/h 12.9 km/h 92% 0.0 mm 0 W/m2
07:08 2.4 °C 1.2 °C 1027.8 hPa West 9.7 km/h 14.5 km/h 92% 0.0 mm 0 W/m2
07:13 2.4 °C 1.4 °C 1027.8 hPa WNW 3.2 km/h 14.5 km/h 93% 0.0 mm 0 W/m2
07:18 2.4 °C 1.4 °C 1027.8 hPa West 13 km/h 16.1 km/h 93% 0.0 mm 0 W/m2
07:23 2.4 °C 1.2 °C 1028.1 hPa WNW 7.9 km/h 12.9 km/h 92% 0.0 mm 0 W/m2
07:28 2.4 °C 1.4 °C 1028.1 hPa WNW 6.4 km/h 9.7 km/h 93% 0.0 mm 0 W/m2
07:33 2.4 °C 1.4 °C 1028.1 hPa SW 9.7 km/h 11.3 km/h 93% 0.0 mm 0 W/m2
07:38 2.4 °C 1.4 °C 1028.1 hPa WSW 4.7 km/h 11.3 km/h 93% 0.0 mm 5 W/m2
07:43 2.4 °C 1.4 °C 1028.5 hPa WSW 4.7 km/h 14.5 km/h 93% 0.0 mm 11 W/m2
07:48 2.4 °C 1.4 °C 1028.5 hPa WSW 11.1 km/h 12.9 km/h 93% 0.0 mm 14 W/m2
07:54 2.4 °C 1.4 °C 1028.5 hPa WSW 7.9 km/h 14.5 km/h 93% 0.0 mm 18 W/m2
07:59 2.4 °C 1.4 °C 1028.5 hPa West 6.4 km/h 22.5 km/h 93% 0.0 mm 18 W/m2
08:04 2.4 °C 1.4 °C 1028.8 hPa WSW 11.1 km/h 14.5 km/h 93% 0.0 mm 23 W/m2
08:09 2.4 °C 1.4 °C 1028.8 hPa WSW 6.4 km/h 16.1 km/h 93% 0.0 mm 32 W/m2
08:14 2.5 °C 1.5 °C 1028.8 hPa WNW 6.4 km/h 6.4 km/h 93% 0.0 mm 37 W/m2
08:19 2.5 °C 1.5 °C 1028.8 hPa WNW 7.9 km/h 11.3 km/h 93% 0.0 mm 46 W/m2
08:24 2.6 °C 1.6 °C 1028.8 hPa West 4.7 km/h 14.5 km/h 93% 0.0 mm 60 W/m2
08:29 2.7 °C 1.7 °C 1028.8 hPa SW 6.4 km/h 14.5 km/h 93% 0.0 mm 70 W/m2
08:34 2.7 °C 1.7 °C 1029.1 hPa WNW 3.2 km/h 14.5 km/h 93% 0.0 mm 88 W/m2
08:39 2.8 °C 1.8 °C 1029.1 hPa WNW 3.2 km/h 6.4 km/h 93% 0.0 mm 116 W/m2
08:44 2.8 °C 1.6 °C 1029.1 hPa West 11.1 km/h 14.5 km/h 92% 0.0 mm 98 W/m2
08:49 2.9 °C 1.7 °C 1029.5 hPa West 6.4 km/h 16.1 km/h 92% 0.0 mm 93 W/m2
08:54 2.9 °C 1.7 °C 1029.1 hPa West 6.4 km/h 6.4 km/h 92% 0.0 mm 81 W/m2
08:59 3 °C 1.8 °C 1029.5 hPa WNW 4.7 km/h 6.4 km/h 92% 0.0 mm 83 W/m2
09:04 3.1 °C 1.9 °C 1029.1 hPa West 9.7 km/h 9.7 km/h 92% 0.0 mm 91 W/m2
09:09 3.1 °C 1.9 °C 1029.5 hPa West 11.1 km/h 12.9 km/h 92% 0.0 mm 90 W/m2
09:14 3.1 °C 1.9 °C 1029.5 hPa West 3.2 km/h 16.1 km/h 92% 0.0 mm 83 W/m2
09:19 3.1 °C 1.9 °C 1029.5 hPa WNW 3.2 km/h 14.5 km/h 92% 0.0 mm 81 W/m2
09:24 3.1 °C 1.9 °C 1029.5 hPa WNW 9.7 km/h 14.5 km/h 92% 0.0 mm 95 W/m2
09:29 3.1 °C 1.9 °C 1029.5 hPa West 1.4 km/h 4.8 km/h 92% 0.0 mm 120 W/m2
09:34 3.1 °C 1.9 °C 1029.5 hPa WSW 3.2 km/h 6.4 km/h 92% 0.0 mm 155 W/m2
09:39 3.2 °C 2 °C 1029.5 hPa WSW 1.4 km/h 6.4 km/h 92% 0.0 mm 111 W/m2
09:44 3.3 °C 2 °C 1029.5 hPa West 4.7 km/h 8 km/h 91% 0.0 mm 116 W/m2
09:49 3.3 °C 2.1 °C 1029.5 hPa Calm   9.7 km/h 92% 0.0 mm 171 W/m2
09:54 3.5 °C 2.3 °C 1029.5 hPa West 4.7 km/h 4.8 km/h 92% 0.0 mm 225 W/m2
09:59 3.7 °C 2.4 °C 1029.5 hPa Calm   4.8 km/h 91% 0.0 mm 236 W/m2
10:04 3.8 °C 2.5 °C 1029.5 hPa NW 3.2 km/h 4.8 km/h 91% 0.0 mm 243 W/m2
10:09 4.1 °C 2.6 °C 1029.8 hPa West 6.4 km/h 12.9 km/h 90% 0.0 mm 267 W/m2
10:14 4.2 °C 2.7 °C 1029.8 hPa WSW 9.7 km/h 16.1 km/h 90% 0.0 mm 230 W/m2
10:19 4.4 °C 2.7 °C 1029.8 hPa West 4.7 km/h 4.8 km/h 89% 0.0 mm 246 W/m2
10:24 4.6 °C 2.9 °C 1029.8 hPa WNW 4.7 km/h 16.1 km/h 89% 0.0 mm 267 W/m2
10:29 4.7 °C 2.9 °C 1030.1 hPa West 3.2 km/h 16.1 km/h 88% 0.0 mm 264 W/m2
10:34 4.7 °C 2.9 °C 1030.1 hPa WNW 3.2 km/h 11.3 km/h 88% 0.0 mm 206 W/m2
10:39 4.9 °C 3.1 °C 1030.1 hPa NW 4.7 km/h 16.1 km/h 88% 0.0 mm 211 W/m2
10:44 5 °C 3 °C 1030.1 hPa West 4.7 km/h 14.5 km/h 87% 0.0 mm 171 W/m2
10:49 5.1 °C 3 °C 1030.1 hPa WSW 4.7 km/h 14.5 km/h 86% 0.0 mm 155 W/m2
10:54 5.1 °C 3 °C 1030.1 hPa NNW 9.7 km/h 9.7 km/h 86% 0.0 mm 190 W/m2
10:59 5.2 °C 3.1 °C 1030.1 hPa WNW 3.2 km/h 14.5 km/h 86% 0.0 mm 265 W/m2
11:04 5.3 °C 3.1 °C 1030.1 hPa SW 3.2 km/h 8 km/h 86% 0.0 mm 278 W/m2
11:09 5.4 °C 3.2 °C 1030.1 hPa West 4.7 km/h 9.7 km/h 86% 0.0 mm 373 W/m2
11:14 5.6 °C 3.3 °C 1030.1 hPa WNW 3.2 km/h 14.5 km/h 85% 0.0 mm 318 W/m2
11:19 5.8 °C 3.5 °C 1030.1 hPa West 4.7 km/h 17.7 km/h 85% 0.0 mm 272 W/m2
11:24 5.9 °C 3.4 °C 1030.1 hPa WSW 4.7 km/h 12.9 km/h 84% 0.0 mm 285 W/m2
11:29 6 °C 3.3 °C 1030.1 hPa NW 4.7 km/h 4.8 km/h 83% 0.0 mm 148 W/m2
11:34 6.2 °C 3.5 °C 1030.1 hPa West 4.7 km/h 12.9 km/h 83% 0.0 mm 171 W/m2
11:39 6.3 °C 3.6 °C 1030.1 hPa WNW 6.4 km/h 6.4 km/h 83% 0.0 mm 127 W/m2
11:44 6.4 °C 3.6 °C 1030.5 hPa WNW 7.9 km/h 16.1 km/h 82% 0.0 mm 123 W/m2
11:50 6.4 °C 3.6 °C 1030.5 hPa WNW 6.4 km/h 12.9 km/h 82% 0.0 mm 163 W/m2
11:55 6.3 °C 3.3 °C 1030.5 hPa West 1.4 km/h 4.8 km/h 81% 0.0 mm 107 W/m2
12:00 6.3 °C 3.3 °C 1030.5 hPa WSW 3.2 km/h 12.9 km/h 81% 0.0 mm 118 W/m2
12:05 6.4 °C 3.6 °C 1030.5 hPa SE 1.4 km/h 3.2 km/h 82% 0.0 mm 276 W/m2
12:10 6.6 °C 3.6 °C 1030.5 hPa SSW 6.4 km/h 9.7 km/h 81% 0.0 mm 497 W/m2
12:15 7 °C 4 °C 1030.5 hPa West 3.2 km/h 9.7 km/h 81% 0.0 mm 548 W/m2
12:20 7.4 °C 4.2 °C 1030.1 hPa WNW 7.9 km/h 9.7 km/h 80% 0.0 mm 571 W/m2
12:25 7.6 °C 4.2 °C 1030.1 hPa WNW 6.4 km/h 9.7 km/h 79% 0.0 mm 269 W/m2
12:30 7.7 °C 3.9 °C 1030.1 hPa WNW 1.4 km/h 8 km/h 77% 0.0 mm 181 W/m2
12:35 7.6 °C 3.8 °C 1030.1 hPa West 3.2 km/h 4.8 km/h 77% 0.0 mm 160 W/m2
12:40 7.6 °C 3.8 °C 1030.1 hPa WSW 11.1 km/h 16.1 km/h 77% 0.0 mm 192 W/m2
12:45 7.6 °C 3.6 °C 1030.1 hPa WNW 4.7 km/h 6.4 km/h 76% 0.0 mm 125 W/m2
12:50 7.4 °C 3.3 °C 1030.1 hPa West 3.2 km/h 9.7 km/h 75% 0.0 mm 172 W/m2
12:55 7.4 °C 3.3 °C 1030.1 hPa WNW 3.2 km/h 4.8 km/h 75% 0.0 mm 137 W/m2
13:00 7.4 °C 3.3 °C 1030.1 hPa WSW 3.2 km/h 6.4 km/h 75% 0.0 mm 171 W/m2
13:05 7.4 °C 3.3 °C 1030.1 hPa NNW 7.9 km/h 14.5 km/h 75% 0.0 mm 322 W/m2
13:10 7.7 °C 3.5 °C 1030.1 hPa SSW 3.2 km/h 8 km/h 75% 0.0 mm 352 W/m2
13:15 7.8 °C 3.5 °C 1030.1 hPa SSE 4.7 km/h 14.5 km/h 74% 0.0 mm 311 W/m2
13:20 7.9 °C 3.6 °C 1030.1 hPa NW 9.7 km/h 9.7 km/h 74% 0.0 mm 301 W/m2
13:25 8.1 °C 3.6 °C 1030.1 hPa Calm   8 km/h 73% 0.0 mm 267 W/m2
13:30 8.1 °C 3.4 °C 1029.8 hPa WSW 6.4 km/h 11.3 km/h 72% 0.0 mm 216 W/m2
13:35 7.9 °C 3.2 °C 1029.8 hPa West 4.7 km/h 12.9 km/h 72% 0.0 mm 200 W/m2
13:40 7.9 °C 3 °C 1029.8 hPa West 4.7 km/h 11.3 km/h 71% 0.0 mm 213 W/m2
13:45 8 °C 3.1 °C 1029.8 hPa WSW 6.4 km/h 14.5 km/h 71% 0.0 mm 220 W/m2
13:50 8 °C 2.9 °C 1029.8 hPa North 1.4 km/h 17.7 km/h 70% 0.0 mm 239 W/m2
13:55 8.1 °C 3 °C 1029.8 hPa WNW 4.7 km/h 12.9 km/h 70% 0.0 mm 302 W/m2
14:00 8.1 °C 3.2 °C 1029.5 hPa WNW 7.9 km/h 11.3 km/h 71% 0.0 mm 211 W/m2
14:05 8.2 °C 2.6 °C 1029.5 hPa WNW 11.1 km/h 19.3 km/h 68% 0.0 mm 209 W/m2
14:10 8.2 °C 2.6 °C 1029.5 hPa WNW 6.4 km/h 20.9 km/h 68% 0.0 mm 246 W/m2
14:15 8.2 °C 3.1 °C 1029.5 hPa SSW 6.4 km/h 8 km/h 70% 0.0 mm 213 W/m2
14:20 8.1 °C 2.8 °C 1029.5 hPa WNW 3.2 km/h 17.7 km/h 69% 0.0 mm 179 W/m2
14:25 8.2 °C 2.9 °C 1029.5 hPa WSW 4.7 km/h 16.1 km/h 69% 0.0 mm 183 W/m2
14:30 8.1 °C 2.5 °C 1029.5 hPa West 13 km/h 17.7 km/h 68% 0.0 mm 214 W/m2
14:35 8.1 °C 2.5 °C 1029.5 hPa West 6.4 km/h 14.5 km/h 68% 0.0 mm 229 W/m2
14:40 8.1 °C 2.5 °C 1029.5 hPa NW 7.9 km/h 17.7 km/h 68% 0.0 mm 200 W/m2
14:45 8.1 °C 2.3 °C 1029.5 hPa WNW 14.3 km/h 19.3 km/h 67% 0.0 mm 165 W/m2
14:50 8.1 °C 2.5 °C 1029.5 hPa WNW 14.3 km/h 16.1 km/h 68% 0.0 mm 160 W/m2
14:55 8.1 °C 2.8 °C 1029.1 hPa West 11.1 km/h 14.5 km/h 69% 0.0 mm 179 W/m2
15:00 8 °C 2.7 °C 1029.1 hPa WNW 3.2 km/h 16.1 km/h 69% 0.0 mm 163 W/m2
15:05 8 °C 2.5 °C 1029.1 hPa West 6.4 km/h 12.9 km/h 68% 0.0 mm 162 W/m2
15:10 8.1 °C 2.8 °C 1029.1 hPa NW 3.2 km/h 9.7 km/h 69% 0.0 mm 176 W/m2
15:15 8.1 °C 2.5 °C 1029.1 hPa WSW 6.4 km/h 16.1 km/h 68% 0.0 mm 135 W/m2
15:20 8.2 °C 2.6 °C 1029.1 hPa WNW 4.7 km/h 8 km/h 68% 0.0 mm 125 W/m2
15:25 8.2 °C 2.4 °C 1029.1 hPa WNW 4.7 km/h 12.9 km/h 67% 0.0 mm 121 W/m2
15:30 8.2 °C 2.4 °C 1029.1 hPa NW 1.4 km/h 6.4 km/h 67% 0.0 mm 134 W/m2
15:35 8.2 °C 2.2 °C 1029.1 hPa WNW 4.7 km/h 14.5 km/h 66% 0.0 mm 142 W/m2
15:40 8.2 °C 2.2 °C 1029.1 hPa Calm   9.7 km/h 66% 0.0 mm 142 W/m2
15:45 8.3 °C 2.3 °C 1029.1 hPa West 3.2 km/h 11.3 km/h 66% 0.0 mm 125 W/m2
15:50 8.2 °C 2 °C 1029.1 hPa WNW 6.4 km/h 16.1 km/h 65% 0.0 mm 134 W/m2
15:55 8.2 °C 2.2 °C 1029.1 hPa WNW 3.2 km/h 9.7 km/h 66% 0.0 mm 135 W/m2
16:00 8.2 °C 2.2 °C 1029.1 hPa WSW 1.4 km/h 16.1 km/h 66% 0.0 mm 135 W/m2
16:05 8.2 °C 2.2 °C 1029.1 hPa NNW 4.7 km/h 12.9 km/h 66% 0.0 mm 128 W/m2
16:10 8.2 °C 2.2 °C 1029.1 hPa WNW 6.4 km/h 16.1 km/h 66% 0.0 mm 135 W/m2
16:15 8.2 °C 2 °C 1029.1 hPa NW 3.2 km/h 4.8 km/h 65% 0.0 mm 123 W/m2
16:20 8.3 °C 2.3 °C 1028.8 hPa SSW 4.7 km/h 8 km/h 66% 0.0 mm 120 W/m2
16:25 8.3 °C 2.1 °C 1028.8 hPa NW 4.7 km/h 12.9 km/h 65% 0.0 mm 128 W/m2
16:30 8.3 °C 2.1 °C 1028.8 hPa North 1.4 km/h 4.8 km/h 65% 0.0 mm 111 W/m2
16:35 8.3 °C 2.3 °C 1028.8 hPa NW 6.4 km/h 11.3 km/h 66% 0.0 mm 90 W/m2
16:40 8.2 °C 2.4 °C 1028.8 hPa WNW 3.2 km/h 4.8 km/h 67% 0.0 mm 86 W/m2
16:45 8.2 °C 2.2 °C 1028.8 hPa Calm   9.7 km/h 66% 0.0 mm 77 W/m2
16:51 8.1 °C 2.1 °C 1028.8 hPa WNW 6.4 km/h 12.9 km/h 66% 0.0 mm 69 W/m2
16:56 8.1 °C 2.1 °C 1028.8 hPa NW 3.2 km/h 11.3 km/h 66% 0.0 mm 65 W/m2
17:01 8.1 °C 2.3 °C 1028.8 hPa NNW 4.7 km/h 12.9 km/h 67% 0.0 mm 56 W/m2
17:06 8 °C 2.2 °C 1028.8 hPa West 3.2 km/h 8 km/h 67% 0.0 mm 53 W/m2
17:11 7.9 °C 2.2 °C 1029.1 hPa WNW 4.7 km/h 9.7 km/h 67% 0.0 mm 51 W/m2
17:16 7.9 °C 2.4 °C 1028.8 hPa SW 4.7 km/h 6.4 km/h 68% 0.0 mm 46 W/m2
17:21 7.8 °C 2.3 °C 1028.8 hPa NW 4.7 km/h 6.4 km/h 68% 0.0 mm 40 W/m2
17:26 7.8 °C 2.3 °C 1028.8 hPa West 13 km/h 12.9 km/h 68% 0.0 mm 33 W/m2
17:31 7.7 °C 2.2 °C 1028.8 hPa West 6.4 km/h 12.9 km/h 68% 0.0 mm 30 W/m2
17:36 7.7 °C 2.2 °C 1028.8 hPa Calm   3.2 km/h 68% 0.0 mm 25 W/m2
17:41 7.6 °C 2.3 °C 1028.8 hPa Calm   11.3 km/h 69% 0.0 mm 21 W/m2
17:46 7.5 °C 2.2 °C 1028.8 hPa WSW 3.2 km/h 9.7 km/h 69% 0.0 mm 16 W/m2
17:51 7.4 °C 2.3 °C 1028.8 hPa WNW 1.4 km/h 1.6 km/h 70% 0.0 mm 9 W/m2
17:56 7.3 °C 2.2 °C 1028.8 hPa WSW 6.4 km/h 6.4 km/h 70% 0.0 mm 5 W/m2
18:01 7.2 °C 2.3 °C 1028.8 hPa Calm   3.2 km/h 71% 0.0 mm 0 W/m2
18:06 7.1 °C 2.2 °C 1028.8 hPa West 1.4 km/h 6.4 km/h 71% 0.0 mm 0 W/m2
18:11 7 °C 2.3 °C 1028.5 hPa Calm   12.9 km/h 72% 0.0 mm 0 W/m2
18:16 6.9 °C 2.4 °C 1028.5 hPa SE 1.4 km/h 1.6 km/h 73% 0.0 mm 0 W/m2
18:21 6.7 °C 2.2 °C 1028.8 hPa Calm   1.6 km/h 73% 0.0 mm 0 W/m2
18:26 6.6 °C 2.3 °C 1028.8 hPa Calm   1.6 km/h 74% 0.0 mm 0 W/m2
18:31 6.5 °C 2.2 °C 1028.8 hPa SE 1.4 km/h 1.6 km/h 74% 0.0 mm 0 W/m2
18:36 6.3 °C 2.2 °C 1028.8 hPa Calm   1.6 km/h 75% 0.0 mm 0 W/m2
18:41 6.2 °C 2.3 °C 1029.1 hPa Calm     76% 0.0 mm 0 W/m2
18:46 5.9 °C 2.2 °C 1029.1 hPa SSW 3.2 km/h 3.2 km/h 77% 0.0 mm 0 W/m2
18:51 5.9 °C 2.2 °C 1028.8 hPa Calm   1.6 km/h 77% 0.0 mm 0 W/m2
18:56 5.8 °C 2.3 °C 1028.8 hPa Calm   1.6 km/h 78% 0.0 mm 0 W/m2
19:01 5.7 °C 2.3 °C 1029.1 hPa Calm     79% 0.0 mm 0 W/m2
19:06 5.5 °C 2.1 °C 1029.1 hPa Calm   1.6 km/h 79% 0.0 mm 0 W/m2
19:11 5.4 °C 2.2 °C 1029.1 hPa ENE 1.4 km/h 1.6 km/h 80% 0.0 mm 0 W/m2
19:16 5.3 °C 2.1 °C 1029.1 hPa Calm   1.6 km/h 80% 0.0 mm 0 W/m2
19:21 5.3 °C 2.3 °C 1029.1 hPa ESE 4.7 km/h 6.4 km/h 81% 0.0 mm 0 W/m2
19:26 5.3 °C 2.3 °C 1029.5 hPa Calm   1.6 km/h 81% 0.0 mm 0 W/m2
19:31 5.3 °C 2.3 °C 1029.1 hPa SSE 1.4 km/h 3.2 km/h 81% 0.0 mm 0 W/m2
19:36 5.2 °C 2.2 °C 1029.1 hPa SSE 3.2 km/h 3.2 km/h 81% 0.0 mm 0 W/m2
19:41 5.2 °C 2.4 °C 1029.1 hPa Calm   1.6 km/h 82% 0.0 mm 0 W/m2
19:46 5.1 °C 2.3 °C 1029.1 hPa SE 1.4 km/h 1.6 km/h 82% 0.0 mm 0 W/m2
19:51 5.1 °C 2.3 °C 1028.8 hPa ESE 1.4 km/h 3.2 km/h 82% 0.0 mm 0 W/m2
19:56 5 °C 2.2 °C 1028.8 hPa ESE 1.4 km/h 1.6 km/h 82% 0.0 mm 0 W/m2
20:01 4.9 °C 2.3 °C 1028.8 hPa NE 1.4 km/h 1.6 km/h 83% 0.0 mm 0 W/m2
20:06 4.9 °C 2.3 °C 1029.1 hPa ENE 1.4 km/h 1.6 km/h 83% 0.0 mm 0 W/m2
20:11 4.9 °C 2.3 °C 1029.1 hPa Calm     83% 0.0 mm 0 W/m2
20:16 4.8 °C 2.2 °C 1029.5 hPa Calm   3.2 km/h 83% 0.0 mm 0 W/m2
20:21 4.8 °C 2.3 °C 1029.1 hPa East 1.4 km/h 3.2 km/h 84% 0.0 mm 0 W/m2
20:26 4.7 °C 2.2 °C 1029.1 hPa ESE 1.4 km/h 1.6 km/h 84% 0.0 mm 0 W/m2
20:31 4.7 °C 2.2 °C 1029.1 hPa ESE 1.4 km/h 3.2 km/h 84% 0.0 mm 0 W/m2
20:36 4.7 °C 2.4 °C 1029.1 hPa East 1.4 km/h 1.6 km/h 85% 0.0 mm 0 W/m2
20:41 4.7 °C 2.4 °C 1028.8 hPa ESE 4.7 km/h 4.8 km/h 85% 0.0 mm 0 W/m2
20:46 4.8 °C 2.5 °C 1028.8 hPa Calm   1.6 km/h 85% 0.0 mm 0 W/m2
20:51 4.9 °C 2.4 °C 1029.1 hPa Calm   1.6 km/h 84% 0.0 mm 0 W/m2
20:56 5.1 °C 2.5 °C 1029.1 hPa NE 1.4 km/h 1.6 km/h 83% 0.0 mm 0 W/m2
21:01 5.2 °C 2.5 °C 1029.1 hPa SSW 4.7 km/h 4.8 km/h 83% 0.0 mm 0 W/m2
21:06 5.2 °C 2.5 °C 1029.1 hPa West 1.4 km/h 1.6 km/h 83% 0.0 mm 0 W/m2
21:11 5.3 °C 2.5 °C 1029.1 hPa Calm   3.2 km/h 82% 0.0 mm 0 W/m2
21:16 5.3 °C 2.5 °C 1029.1 hPa Calm   3.2 km/h 82% 0.0 mm 0 W/m2
21:21 5.2 °C 2.4 °C 1029.1 hPa ENE 1.4 km/h 3.2 km/h 82% 0.0 mm 0 W/m2
21:26 5.3 °C 2.5 °C 1029.1 hPa ENE 1.4 km/h 1.6 km/h 82% 0.0 mm 0 W/m2
21:31 5.1 °C 2.3 °C 1029.1 hPa ENE 1.4 km/h 1.6 km/h 82% 0.0 mm 0 W/m2
21:36 5.1 °C 2.5 °C 1029.1 hPa Calm   1.6 km/h 83% 0.0 mm 0 W/m2
21:41 5.1 °C 2.5 °C 1029.1 hPa NNE 1.4 km/h 4.8 km/h 83% 0.0 mm 0 W/m2
21:46 5.2 °C 2.5 °C 1029.5 hPa NNW 1.4 km/h 3.2 km/h 83% 0.0 mm 0 W/m2
21:51 5.2 °C 2.4 °C 1029.5 hPa WNW 4.7 km/h 8 km/h 82% 0.0 mm 0 W/m2
21:56 5.3 °C 2.5 °C 1029.1 hPa WSW 1.4 km/h 3.2 km/h 82% 0.0 mm 0 W/m2
22:01 5.4 °C 2.6 °C 1029.1 hPa NW 1.4 km/h 4.8 km/h 82% 0.0 mm 0 W/m2
22:06 5.4 °C 2.6 °C 1029.5 hPa Calm   3.2 km/h 82% 0.0 mm 0 W/m2
22:11 5.4 °C 2.4 °C 1029.1 hPa ENE 1.4 km/h 3.2 km/h 81% 0.0 mm 0 W/m2
22:16 5.3 °C 2.3 °C 1029.1 hPa East 3.2 km/h 3.2 km/h 81% 0.0 mm 0 W/m2
22:21 5.2 °C 2.2 °C 1028.8 hPa ESE 1.4 km/h 1.6 km/h 81% 0.0 mm 0 W/m2
22:26 5.1 °C 2.3 °C 1029.1 hPa NNW 1.4 km/h 1.6 km/h 82% 0.0 mm 0 W/m2
22:31 5 °C 2.2 °C 1029.1 hPa Calm     82% 0.0 mm 0 W/m2
22:36 4.8 °C 2 °C 1029.1 hPa NNW 1.4 km/h 3.2 km/h 82% 0.0 mm 0 W/m2
22:42 4.7 °C 2.1 °C 1029.1 hPa Calm   1.6 km/h 83% 0.0 mm 0 W/m2
22:47 4.6 °C 2.1 °C 1029.1 hPa Calm   1.6 km/h 84% 0.0 mm 0 W/m2
22:52 4.6 °C 2.1 °C 1029.1 hPa Calm   4.8 km/h 84% 0.0 mm 0 W/m2
22:57 4.6 °C 2.1 °C 1029.1 hPa Calm   3.2 km/h 84% 0.0 mm 0 W/m2
23:02 4.5 °C 2 °C 1028.8 hPa Calm   6.4 km/h 84% 0.0 mm 0 W/m2
23:07 4.3 °C 1.8 °C 1028.8 hPa NNE 3.2 km/h 3.2 km/h 84% 0.0 mm 0 W/m2
23:12 4.3 °C 2 °C 1028.8 hPa ESE 1.4 km/h 3.2 km/h 85% 0.0 mm 0 W/m2
23:17 4.2 °C 1.7 °C 1028.8 hPa ESE 3.2 km/h 3.2 km/h 84% 0.0 mm 0 W/m2
23:22 4 °C 1.7 °C 1028.8 hPa ESE 1.4 km/h 3.2 km/h 85% 0.0 mm 0 W/m2
23:27 3.9 °C 1.8 °C 1028.8 hPa ENE 3.2 km/h 3.2 km/h 86% 0.0 mm 0 W/m2
23:32 3.9 °C 1.8 °C 1028.5 hPa East 3.2 km/h 4.8 km/h 86% 0.0 mm 0 W/m2
23:37 3.7 °C 1.6 °C 1028.5 hPa ESE 3.2 km/h 3.2 km/h 86% 0.0 mm 0 W/m2
23:42 3.6 °C 1.5 °C 1028.5 hPa ESE 1.4 km/h 3.2 km/h 86% 0.0 mm 0 W/m2
23:47 3.6 °C 1.6 °C 1028.5 hPa ESE 1.4 km/h 3.2 km/h 87% 0.0 mm 0 W/m2
23:52 3.5 °C 1.5 °C 1028.5 hPa Calm     87% 0.0 mm 0 W/m2
23:57 3.5 °C 1.7 °C 1028.5 hPa ESE 1.4 km/h 6.4 km/h 88% 0.0 mm 0 W/m2
Juneau County Weather
Compliments of Weather Underground - 4 mb